createdAt,value
2022-09-23T00:01:21.203Z,69.80
2022-09-23T00:03:49.188Z,69.80
2022-09-23T00:06:19.672Z,70.00
2022-09-23T00:08:49.622Z,69.90
2022-09-23T00:11:22.954Z,69.70
2022-09-23T00:13:54.112Z,69.70
2022-09-23T00:16:30.917Z,69.80
2022-09-23T00:18:58.211Z,69.80
2022-09-23T00:21:25.736Z,70.00
2022-09-23T00:23:53.879Z,70.00
2022-09-23T00:26:23.010Z,70.10
2022-09-23T00:28:51.688Z,70.20
2022-09-23T00:31:22.120Z,70.30
2022-09-23T00:33:54.108Z,70.50
2022-09-23T00:36:21.587Z,70.50
2022-09-23T00:38:49.083Z,70.20
2022-09-23T00:41:16.903Z,70.00
2022-09-23T00:43:47.759Z,70.20
2022-09-23T00:46:28.026Z,70.20
2022-09-23T00:49:12.322Z,70.30
2022-09-23T00:51:47.202Z,71.00
2022-09-23T00:54:14.580Z,70.10
2022-09-23T00:56:42.052Z,70.10
2022-09-23T00:59:10.316Z,70.20
2022-09-23T01:01:39.020Z,70.20
2022-09-23T01:04:08.136Z,70.00
2022-09-23T01:06:35.848Z,70.00
2022-09-23T01:09:03.568Z,70.00
2022-09-23T01:11:43.049Z,70.10
2022-09-23T01:14:48.756Z,70.20
2022-09-23T01:17:39.384Z,70.40
2022-09-23T01:20:21.566Z,70.40
2022-09-23T01:23:25.730Z,70.80
2022-09-23T01:26:09.029Z,70.90
2022-09-23T01:29:10.871Z,70.80
2022-09-23T01:32:03.132Z,70.80
2022-09-23T01:34:42.044Z,70.50
2022-09-23T01:37:34.614Z,70.30
2022-09-23T01:40:32.298Z,71.10
2022-09-23T01:43:44.021Z,70.80
2022-09-23T01:46:24.201Z,70.70
2022-09-23T01:48:58.973Z,70.80
2022-09-23T01:51:32.789Z,70.70
2022-09-23T01:54:29.028Z,70.90
2022-09-23T01:57:18.819Z,71.30
2022-09-23T01:59:56.648Z,71.20
2022-09-23T02:02:29.908Z,71.20
2022-09-23T02:05:19.787Z,71.30
2022-09-23T02:07:57.940Z,71.30
2022-09-23T02:10:30.938Z,72.10
2022-09-23T02:13:05.288Z,71.20
2022-09-23T02:15:40.128Z,71.00
2022-09-23T02:18:15.440Z,71.00
2022-09-23T02:20:43.591Z,70.90
2022-09-23T02:23:14.455Z,71.00
2022-09-23T02:26:09.054Z,71.00
2022-09-23T02:29:18.557Z,71.30
2022-09-23T02:31:57.851Z,71.70
2022-09-23T02:34:50.511Z,71.40
2022-09-23T02:37:32.801Z,71.30
2022-09-23T02:40:11.784Z,71.20
2022-09-23T02:43:09.142Z,71.30
2022-09-23T02:45:38.863Z,71.50
2022-09-23T02:48:14.662Z,71.10
2022-09-23T02:50:42.463Z,71.30
2022-09-23T02:53:10.610Z,71.10
2022-09-23T02:55:39.248Z,71.00
2022-09-23T02:58:06.680Z,71.00
2022-09-23T03:00:56.115Z,71.30
2022-09-23T03:03:55.515Z,71.40
2022-09-23T03:06:29.333Z,71.30
2022-09-23T03:09:06.375Z,71.20
2022-09-23T03:11:37.619Z,71.30
2022-09-23T03:14:49.466Z,71.30
2022-09-23T03:17:34.807Z,71.80
2022-09-23T03:20:17.803Z,71.60
2022-09-23T03:22:49.772Z,71.60
2022-09-23T03:25:21.775Z,71.60
2022-09-23T03:27:49.059Z,71.70
2022-09-23T03:30:17.848Z,71.90
2022-09-23T03:32:47.007Z,71.60
2022-09-23T03:35:14.762Z,72.00
2022-09-23T03:37:53.680Z,71.50
2022-09-23T03:40:28.553Z,71.60
2022-09-23T03:42:58.600Z,71.60
2022-09-23T03:45:32.577Z,71.50
2022-09-23T03:48:00.580Z,71.60
2022-09-23T03:50:28.728Z,71.50
2022-09-23T03:52:56.283Z,71.40
2022-09-23T03:55:23.751Z,71.50
2022-09-23T03:57:51.416Z,71.70
2022-09-23T04:00:20.354Z,71.80
2022-09-23T04:02:48.146Z,71.80
2022-09-23T04:05:15.595Z,71.70
2022-09-23T04:07:43.264Z,71.60
2022-09-23T04:10:11.126Z,71.60
2022-09-23T04:12:38.649Z,71.40
2022-09-23T04:15:06.872Z,71.50
2022-09-23T04:17:34.561Z,71.50
2022-09-23T04:20:02.199Z,71.60
2022-09-23T04:22:29.632Z,71.70
2022-09-23T04:24:57.275Z,72.00
2022-09-23T04:27:24.754Z,72.00
2022-09-23T04:29:52.892Z,72.10
2022-09-23T04:32:20.329Z,72.30
2022-09-23T04:34:47.827Z,72.30
2022-09-23T04:37:15.312Z,72.20
2022-09-23T04:39:43.368Z,72.10
2022-09-23T04:42:10.787Z,72.10
2022-09-23T04:44:39.623Z,72.00
2022-09-23T04:47:07.319Z,71.90
2022-09-23T04:49:35.068Z,71.90
2022-09-23T04:52:02.726Z,72.00
2022-09-23T04:54:30.191Z,72.10
2022-09-23T04:56:57.781Z,72.20
2022-09-23T04:59:25.397Z,72.20
2022-09-23T05:01:54.595Z,72.40
2022-09-23T05:04:22.847Z,72.50
2022-09-23T05:06:50.297Z,72.60
2022-09-23T05:09:18.005Z,72.50
2022-09-23T05:11:46.244Z,72.30
2022-09-23T05:14:13.779Z,72.30
2022-09-23T05:16:41.527Z,72.20
2022-09-23T05:19:09.030Z,72.40
2022-09-23T05:21:37.688Z,72.40
2022-09-23T05:24:05.283Z,72.40
2022-09-23T05:26:32.859Z,72.50
2022-09-23T05:29:00.750Z,72.70
2022-09-23T05:31:30.109Z,72.70
2022-09-23T05:34:00.639Z,72.80
2022-09-23T05:36:34.279Z,72.90
2022-09-23T05:39:05.731Z,73.60
2022-09-23T05:41:33.894Z,74.80
2022-09-23T05:44:01.759Z,75.70
2022-09-23T05:46:30.535Z,76.10
2022-09-23T05:49:02.607Z,76.10
2022-09-23T05:51:32.516Z,75.60
2022-09-23T05:54:03.160Z,74.60
2022-09-23T05:56:31.723Z,73.40
2022-09-23T05:59:01.371Z,71.80
2022-09-23T06:01:35.326Z,70.20
2022-09-23T06:04:06.026Z,68.70
2022-09-23T06:06:39.144Z,67.10
2022-09-23T06:09:08.359Z,65.90
2022-09-23T06:11:36.509Z,64.90
2022-09-23T06:14:04.636Z,64.10
2022-09-23T06:16:35.752Z,62.80
2022-09-23T06:19:06.514Z,61.10
2022-09-23T06:21:36.890Z,60.10
2022-09-23T06:24:05.623Z,59.10
2022-09-23T06:26:37.461Z,58.20
2022-09-23T06:29:14.502Z,56.80
2022-09-23T06:31:43.311Z,54.40
2022-09-23T06:34:13.934Z,54.60
2022-09-23T06:36:45.520Z,52.70
2022-09-23T06:39:15.220Z,52.40
2022-09-23T06:41:46.496Z,53.60
2022-09-23T06:44:14.837Z,52.20
2022-09-23T06:46:42.989Z,51.10
2022-09-23T06:49:13.236Z,50.70
2022-09-23T06:51:41.452Z,51.30
2022-09-23T06:54:09.076Z,51.10
2022-09-23T06:56:39.375Z,51.20
2022-09-23T06:59:10.540Z,50.30
2022-09-23T07:01:38.400Z,49.80
2022-09-23T07:04:07.439Z,49.10
2022-09-23T07:06:35.373Z,49.20
2022-09-23T07:09:04.067Z,48.90
2022-09-23T07:11:31.596Z,49.00
2022-09-23T07:13:59.148Z,49.30
2022-09-23T07:16:26.647Z,49.40
2022-09-23T07:18:54.992Z,48.80
2022-09-23T07:21:22.679Z,48.70
2022-09-23T07:23:51.725Z,48.20
2022-09-23T07:26:20.499Z,47.60
2022-09-23T07:28:47.851Z,47.30
2022-09-23T07:31:25.629Z,47.70
2022-09-23T07:34:03.506Z,47.40
2022-09-23T07:36:33.591Z,47.50
2022-09-23T07:39:02.276Z,47.20
2022-09-23T07:41:31.991Z,47.00
2022-09-23T07:44:00.608Z,46.90
2022-09-23T07:46:30.420Z,46.00
2022-09-23T07:48:58.436Z,45.10
2022-09-23T07:51:34.712Z,45.10
2022-09-23T07:54:07.313Z,44.30
2022-09-23T07:56:35.836Z,43.40
2022-09-23T07:59:04.793Z,42.40
2022-09-23T08:01:38.458Z,42.00
2022-09-23T08:04:10.455Z,41.20
2022-09-23T08:06:43.085Z,41.10
2022-09-23T08:09:11.663Z,40.40
2022-09-23T08:11:42.094Z,40.60
2022-09-23T08:14:11.351Z,40.00
2022-09-23T08:16:39.777Z,40.10
2022-09-23T08:19:07.945Z,39.90
2022-09-23T08:21:35.613Z,40.10
2022-09-23T08:24:03.300Z,39.50
2022-09-23T08:26:34.283Z,39.70
2022-09-23T08:29:02.220Z,38.90
2022-09-23T08:31:29.972Z,39.20
2022-09-23T08:33:59.835Z,38.30
2022-09-23T08:36:28.071Z,38.20
2022-09-23T08:38:55.478Z,38.00
2022-09-23T08:41:31.619Z,38.20
2022-09-23T08:44:13.763Z,37.30
2022-09-23T08:46:47.867Z,37.70
2022-09-23T08:49:33.400Z,38.00
2022-09-23T08:52:08.695Z,36.50
2022-09-23T08:54:36.040Z,37.40
2022-09-23T08:57:05.779Z,36.20
2022-09-23T08:59:44.694Z,36.90
2022-09-23T09:02:19.259Z,37.10
2022-09-23T09:04:52.591Z,36.70
2022-09-23T09:07:37.727Z,37.30
2022-09-23T09:10:30.564Z,37.40
2022-09-23T09:13:10.029Z,37.60
2022-09-23T09:15:56.390Z,38.60
2022-09-23T09:18:25.831Z,39.60
2022-09-23T09:21:12.081Z,39.80
2022-09-23T09:23:56.047Z,40.00
2022-09-23T09:26:33.995Z,39.70
2022-09-23T09:29:34.256Z,40.60
2022-09-23T09:32:18.223Z,42.30
2022-09-23T09:34:54.612Z,42.90
2022-09-23T09:37:44.619Z,43.20
2022-09-23T09:40:13.769Z,44.30
2022-09-23T09:42:44.928Z,44.10
2022-09-23T09:45:46.651Z,44.40
2022-09-23T09:48:28.419Z,45.30
2022-09-23T09:50:56.021Z,45.60
2022-09-23T09:53:32.006Z,46.70
2022-09-23T09:56:04.937Z,46.90
2022-09-23T09:58:48.661Z,46.40
2022-09-23T10:01:21.001Z,46.90
2022-09-23T10:03:53.035Z,47.60
2022-09-23T10:06:28.889Z,47.50
2022-09-23T10:09:02.036Z,48.00
2022-09-23T10:11:30.667Z,47.70
2022-09-23T10:14:12.557Z,47.60
2022-09-23T10:16:41.618Z,47.20
2022-09-23T10:19:29.295Z,47.80
2022-09-23T10:22:04.874Z,47.30
2022-09-23T10:24:36.248Z,47.60
2022-09-23T10:27:08.425Z,47.30
2022-09-23T10:29:48.705Z,48.00
2022-09-23T10:32:22.704Z,48.50
2022-09-23T10:35:23.701Z,47.80
2022-09-23T10:37:59.771Z,48.00
2022-09-23T10:40:51.227Z,48.10
2022-09-23T10:43:46.300Z,48.70
2022-09-23T10:46:39.320Z,47.90
2022-09-23T10:49:37.425Z,47.60
2022-09-23T10:52:23.287Z,47.50
2022-09-23T10:54:56.696Z,47.50
2022-09-23T10:57:42.457Z,47.20
2022-09-23T11:00:24.063Z,47.60
2022-09-23T11:03:21.516Z,46.30
2022-09-23T11:06:07.674Z,46.50
2022-09-23T11:09:02.988Z,46.20
2022-09-23T11:11:40.240Z,45.80
2022-09-23T11:14:25.450Z,46.10
2022-09-23T11:17:05.681Z,45.70
2022-09-23T11:20:10.746Z,45.50
2022-09-23T11:23:20.248Z,45.90
2022-09-23T11:25:58.772Z,45.60
2022-09-23T11:28:50.575Z,44.80
2022-09-23T11:31:36.312Z,44.40
2022-09-23T11:34:12.231Z,43.70
2022-09-23T11:36:52.031Z,43.60
2022-09-23T11:39:26.869Z,43.70
2022-09-23T11:41:57.432Z,43.80
2022-09-23T11:44:33.501Z,43.40
2022-09-23T11:47:20.758Z,43.20
2022-09-23T11:50:18.907Z,42.30
2022-09-23T11:52:58.598Z,42.50
2022-09-23T11:55:31.464Z,43.50
2022-09-23T11:58:25.295Z,41.80
2022-09-23T12:01:13.294Z,41.70
2022-09-23T12:04:05.737Z,42.80
2022-09-23T12:06:51.802Z,41.40
2022-09-23T12:09:54.064Z,42.40
2022-09-23T12:12:27.261Z,42.70
2022-09-23T12:15:13.468Z,42.00
2022-09-23T12:18:05.273Z,42.40
2022-09-23T12:20:49.571Z,42.70
2022-09-23T12:23:44.376Z,41.50
2022-09-23T12:26:18.623Z,41.90
2022-09-23T12:28:50.000Z,41.90
2022-09-23T12:31:30.541Z,41.50
2022-09-23T12:34:00.316Z,41.70
2022-09-23T12:36:35.268Z,41.60
2022-09-23T12:39:13.886Z,40.80
2022-09-23T12:41:44.570Z,41.80
2022-09-23T12:44:13.867Z,42.10
2022-09-23T12:46:43.712Z,40.60
2022-09-23T12:49:30.473Z,39.90
2022-09-23T12:52:26.012Z,39.30
2022-09-23T12:55:18.308Z,41.20
2022-09-23T12:57:45.741Z,40.90
2022-09-23T13:00:26.415Z,40.80
2022-09-23T13:03:14.000Z,41.20
2022-09-23T13:06:16.691Z,41.90
2022-09-23T13:08:47.144Z,41.10
2022-09-23T13:11:26.052Z,41.90
2022-09-23T13:13:56.527Z,41.90
2022-09-23T13:16:26.458Z,41.20
2022-09-23T13:18:56.351Z,40.50
2022-09-23T13:21:45.653Z,40.80
2022-09-23T13:24:13.004Z,41.20
2022-09-23T13:26:48.867Z,41.20
2022-09-23T13:29:23.535Z,41.30
2022-09-23T13:31:51.002Z,41.00
2022-09-23T13:34:27.000Z,40.30
2022-09-23T13:36:54.647Z,39.40
2022-09-23T13:39:26.725Z,39.30
2022-09-23T13:42:00.789Z,39.80
2022-09-23T13:44:29.735Z,39.40
2022-09-23T13:47:00.336Z,40.30
2022-09-23T13:49:32.704Z,40.50
2022-09-23T13:52:01.083Z,41.00
2022-09-23T13:54:35.484Z,40.70
2022-09-23T13:57:03.544Z,40.30
2022-09-23T13:59:36.696Z,40.30
2022-09-23T14:02:05.804Z,40.30
2022-09-23T14:04:33.073Z,40.50
2022-09-23T14:07:01.887Z,39.70
2022-09-23T14:09:30.448Z,40.70
2022-09-23T14:12:00.218Z,40.80
2022-09-23T14:14:30.255Z,41.30
2022-09-23T14:16:58.886Z,41.30
2022-09-23T14:19:26.870Z,41.10
2022-09-23T14:21:56.079Z,41.20
2022-09-23T14:24:33.706Z,41.80
2022-09-23T14:27:07.324Z,41.30
2022-09-23T14:29:40.457Z,41.10
2022-09-23T14:32:16.231Z,40.60
2022-09-23T14:35:09.153Z,41.10
2022-09-23T14:37:56.074Z,41.40
2022-09-23T14:40:34.248Z,41.10
2022-09-23T14:43:15.616Z,41.50
2022-09-23T14:45:50.358Z,41.70
2022-09-23T14:48:24.552Z,41.90
2022-09-23T14:50:57.674Z,41.30
2022-09-23T14:53:40.284Z,41.30
2022-09-23T14:56:07.749Z,40.90
2022-09-23T14:58:52.928Z,41.30
2022-09-23T15:01:31.238Z,41.10
2022-09-23T15:04:13.205Z,41.90
2022-09-23T15:06:44.684Z,42.00
2022-09-23T15:09:20.444Z,42.40
2022-09-23T15:11:47.707Z,42.20
2022-09-23T15:14:36.823Z,41.90
2022-09-23T15:17:06.767Z,41.40
2022-09-23T15:19:36.149Z,42.10
2022-09-23T15:22:07.093Z,42.10
2022-09-23T15:24:41.596Z,42.20
2022-09-23T15:27:33.155Z,42.60
2022-09-23T15:30:15.632Z,42.50
2022-09-23T15:32:47.310Z,41.70
2022-09-23T15:35:21.022Z,41.70
2022-09-23T15:37:50.307Z,41.20
2022-09-23T15:40:23.835Z,42.00
2022-09-23T15:42:58.688Z,42.40
2022-09-23T15:45:36.178Z,42.30
2022-09-23T15:48:26.011Z,42.90
2022-09-23T15:50:54.290Z,42.80
2022-09-23T15:53:24.430Z,42.20
2022-09-23T15:55:52.236Z,42.90
2022-09-23T15:58:20.535Z,43.30
2022-09-23T16:00:56.272Z,43.50
2022-09-23T16:03:28.592Z,43.80
2022-09-23T16:06:01.049Z,43.90
2022-09-23T16:08:29.559Z,44.10
2022-09-23T16:10:57.017Z,44.40
2022-09-23T16:13:24.283Z,44.60
2022-09-23T16:15:51.542Z,44.50
2022-09-23T16:18:20.216Z,44.80
2022-09-23T16:20:49.447Z,44.60
2022-09-23T16:23:37.045Z,44.80
2022-09-23T16:26:10.385Z,45.00
2022-09-23T16:28:37.728Z,45.60
2022-09-23T16:31:05.416Z,45.20
2022-09-23T16:33:33.090Z,45.30
2022-09-23T16:36:01.531Z,45.60
2022-09-23T16:38:29.762Z,45.70
2022-09-23T16:41:00.174Z,46.00
2022-09-23T16:43:32.747Z,46.70
2022-09-23T16:46:01.102Z,46.20
2022-09-23T16:48:28.660Z,46.10
2022-09-23T16:50:56.097Z,46.40
2022-09-23T16:53:23.751Z,46.50
2022-09-23T16:55:53.360Z,46.70
2022-09-23T16:58:20.965Z,46.80
2022-09-23T17:01:07.090Z,46.80
2022-09-23T17:03:40.929Z,47.20
2022-09-23T17:06:12.935Z,47.60
2022-09-23T17:08:44.715Z,48.40
2022-09-23T17:11:16.768Z,49.00
2022-09-23T17:13:44.707Z,49.80
2022-09-23T17:16:28.472Z,50.60
2022-09-23T17:18:56.762Z,51.50
2022-09-23T17:21:27.759Z,52.20
2022-09-23T17:23:55.749Z,52.60
2022-09-23T17:26:25.100Z,52.40
2022-09-23T17:28:54.635Z,52.70
2022-09-23T17:31:23.558Z,52.80
2022-09-23T17:33:52.833Z,53.10
2022-09-23T17:36:21.232Z,53.50
2022-09-23T17:38:49.901Z,53.70
2022-09-23T17:41:17.996Z,53.90
2022-09-23T17:43:46.713Z,54.00
2022-09-23T17:46:18.246Z,54.90
2022-09-23T17:48:46.985Z,54.80
2022-09-23T17:51:21.509Z,54.90
2022-09-23T17:53:49.259Z,55.90
2022-09-23T17:56:18.155Z,55.70
2022-09-23T17:58:46.965Z,56.10
2022-09-23T18:01:17.764Z,56.40
2022-09-23T18:03:46.365Z,56.40
2022-09-23T18:06:15.631Z,56.20
2022-09-23T18:08:45.401Z,56.20
2022-09-23T18:11:24.300Z,56.50
2022-09-23T18:14:04.430Z,56.90
2022-09-23T18:16:36.408Z,57.40
2022-09-23T18:19:04.759Z,57.60
2022-09-23T18:21:35.628Z,57.40
2022-09-23T18:26:55.935Z,57.50
2022-09-23T18:29:23.560Z,57.60
2022-09-23T18:31:51.404Z,58.10
2022-09-23T18:34:20.153Z,58.40
2022-09-23T18:36:47.672Z,58.50
2022-09-23T18:39:15.281Z,58.30
2022-09-23T18:41:42.691Z,58.30
2022-09-23T18:44:10.368Z,58.90
2022-09-23T18:46:38.600Z,58.30
2022-09-23T18:49:24.810Z,58.70
2022-09-23T18:51:57.185Z,58.30
2022-09-23T18:54:27.514Z,58.20
2022-09-23T18:56:55.676Z,58.30
2022-09-23T18:59:28.060Z,58.50
2022-09-23T19:01:56.244Z,58.60
2022-09-23T19:04:25.593Z,58.90
2022-09-23T19:06:56.372Z,59.10
2022-09-23T19:09:24.697Z,59.10
2022-09-23T19:11:52.854Z,59.30
2022-09-23T19:14:20.391Z,59.10
2022-09-23T19:16:49.299Z,59.00
2022-09-23T19:19:16.866Z,59.10
2022-09-23T19:21:44.383Z,59.20
2022-09-23T19:24:15.407Z,59.20
2022-09-23T19:26:43.549Z,59.10
2022-09-23T19:29:16.175Z,59.20
2022-09-23T19:31:43.874Z,59.20
2022-09-23T19:34:17.128Z,58.90
2022-09-23T19:36:46.449Z,59.10
2022-09-23T19:39:18.278Z,59.30
2022-09-23T19:41:46.128Z,59.50
2022-09-23T19:44:13.971Z,59.40
2022-09-23T19:46:45.125Z,59.70
2022-09-23T19:49:13.619Z,60.00
2022-09-23T19:51:41.435Z,60.00
2022-09-23T19:54:09.250Z,59.70
2022-09-23T19:56:38.497Z,60.00
2022-09-23T19:59:09.093Z,60.00
2022-09-23T20:01:37.200Z,60.10
2022-09-23T20:04:05.523Z,60.20
2022-09-23T20:06:34.991Z,60.30
2022-09-23T20:09:02.600Z,60.40
2022-09-23T20:11:30.335Z,60.60
2022-09-23T20:14:02.210Z,60.60
2022-09-23T20:16:32.703Z,60.90
2022-09-23T20:19:00.922Z,61.10
2022-09-23T20:21:29.506Z,61.50
2022-09-23T20:23:57.744Z,62.30
2022-09-23T20:26:43.705Z,62.20
2022-09-23T20:29:11.357Z,62.10
2022-09-23T20:31:41.421Z,61.90
2022-09-23T20:34:10.710Z,62.10
2022-09-23T20:36:41.303Z,62.30
2022-09-23T20:39:10.009Z,62.40
2022-09-23T20:41:39.103Z,62.40
2022-09-23T20:44:13.023Z,62.40
2022-09-23T20:46:47.834Z,63.10
2022-09-23T20:49:19.555Z,62.90
2022-09-23T20:51:48.956Z,63.00
2022-09-23T20:54:18.972Z,63.10
2022-09-23T20:56:47.528Z,63.00
2022-09-23T20:59:15.060Z,63.10
2022-09-23T21:01:42.706Z,63.50
2022-09-23T21:04:10.278Z,63.70
2022-09-23T21:06:37.899Z,64.70
2022-09-23T21:09:06.540Z,64.10
2022-09-23T21:11:34.371Z,64.00
2022-09-23T21:14:02.484Z,64.80
2022-09-23T21:16:30.609Z,64.10
2022-09-23T21:18:58.637Z,64.30
2022-09-23T21:21:26.767Z,64.30
2022-09-23T21:23:54.018Z,64.20
2022-09-23T21:26:23.705Z,64.70
2022-09-23T21:28:53.069Z,65.10
2022-09-23T21:31:23.480Z,64.80
2022-09-23T21:34:04.479Z,64.70
2022-09-23T21:36:34.683Z,65.00
2022-09-23T21:39:02.929Z,64.80
2022-09-23T21:41:30.890Z,64.80
2022-09-23T21:43:59.272Z,65.00
2022-09-23T21:46:28.214Z,65.20
2022-09-23T21:48:57.365Z,65.20
2022-09-23T21:51:38.609Z,65.20
2022-09-23T21:54:10.422Z,65.40
2022-09-23T21:56:38.044Z,64.90
2022-09-23T21:59:07.730Z,64.90
2022-09-23T22:01:38.195Z,64.90
2022-09-23T22:04:13.152Z,65.10
2022-09-23T22:06:41.359Z,65.00
2022-09-23T22:09:15.135Z,64.90
2022-09-23T22:12:01.674Z,65.10
2022-09-23T22:14:30.545Z,65.20
2022-09-23T22:17:03.564Z,65.40
2022-09-23T22:19:40.220Z,65.80
2022-09-23T22:22:13.753Z,65.70
2022-09-23T22:24:45.221Z,66.00
2022-09-23T22:27:14.643Z,66.30
2022-09-23T22:30:00.832Z,66.10
2022-09-23T22:32:40.532Z,65.90
2022-09-23T22:35:13.450Z,65.80
2022-09-23T22:37:40.888Z,66.00
2022-09-23T22:40:11.444Z,66.40
2022-09-23T22:42:40.063Z,66.80
2022-09-23T22:45:09.252Z,66.70
2022-09-23T22:47:38.691Z,66.70
2022-09-23T22:50:08.343Z,66.60
2022-09-23T22:52:36.368Z,67.10
2022-09-23T22:55:04.617Z,67.20
2022-09-23T22:57:31.926Z,67.20
2022-09-23T22:59:59.164Z,66.90
2022-09-23T23:02:26.537Z,66.90
2022-09-23T23:04:56.187Z,66.80
2022-09-23T23:07:24.652Z,66.70
2022-09-23T23:09:52.801Z,66.60
2022-09-23T23:12:20.785Z,66.50
2022-09-23T23:14:49.319Z,66.50
2022-09-23T23:17:18.539Z,66.60
2022-09-23T23:19:45.945Z,66.60
2022-09-23T23:22:13.252Z,66.70
2022-09-23T23:24:40.592Z,66.90
2022-09-23T23:27:08.077Z,66.90
2022-09-23T23:29:35.279Z,67.20
2022-09-23T23:32:02.825Z,67.00
2022-09-23T23:34:30.019Z,67.00
2022-09-23T23:36:57.315Z,67.00
2022-09-23T23:39:25.477Z,67.40
2022-09-23T23:41:54.945Z,67.30
2022-09-23T23:44:23.763Z,67.30
2022-09-23T23:46:51.236Z,67.20
2022-09-23T23:49:18.839Z,67.30
2022-09-23T23:51:46.493Z,67.30
2022-09-23T23:54:15.053Z,67.20
2022-09-23T23:56:42.608Z,67.40
2022-09-23T23:59:09.792Z,68.20
